sensor_id;sensor_type;location;lat;lon;timestamp;pressure;altitude;pressure_sealevel;temperature;humidity
68301;BME280;55146;47.468;18.806;2024-03-06T00:01:32;99854.25;;;7.05;90.87
68301;BME280;55146;47.468;18.806;2024-03-06T00:03:59;99852.06;;;7.02;90.76
68301;BME280;55146;47.468;18.806;2024-03-06T00:06:24;99861.28;;;6.96;90.44
68301;BME280;55146;47.468;18.806;2024-03-06T00:08:50;99864.84;;;6.96;90.67
68301;BME280;55146;47.468;18.806;2024-03-06T00:11:15;99863.78;;;6.97;90.58
68301;BME280;55146;47.468;18.806;2024-03-06T00:13:41;99861.78;;;6.93;89.89
68301;BME280;55146;47.468;18.806;2024-03-06T00:16:06;99866.13;;;6.88;89.80
68301;BME280;55146;47.468;18.806;2024-03-06T00:18:31;99867.19;;;6.87;90.06
68301;BME280;55146;47.468;18.806;2024-03-06T00:20:57;99869.63;;;6.84;90.09
68301;BME280;55146;47.468;18.806;2024-03-06T00:23:22;99869.09;;;6.87;89.93
68301;BME280;55146;47.468;18.806;2024-03-06T00:25:47;99865.34;;;6.93;89.86
68301;BME280;55146;47.468;18.806;2024-03-06T00:28:13;99859.53;;;6.84;90.09
68301;BME280;55146;47.468;18.806;2024-03-06T00:30:38;99860.56;;;6.78;90.57
68301;BME280;55146;47.468;18.806;2024-03-06T00:33:03;99858.84;;;6.72;90.93
68301;BME280;55146;47.468;18.806;2024-03-06T00:35:29;99860.47;;;6.73;91.00
68301;BME280;55146;47.468;18.806;2024-03-06T00:37:54;99859.84;;;6.66;90.89
68301;BME280;55146;47.468;18.806;2024-03-06T00:40:20;99864.41;;;6.61;90.46
68301;BME280;55146;47.468;18.806;2024-03-06T00:42:45;99862.75;;;6.38;90.59
68301;BME280;55146;47.468;18.806;2024-03-06T00:45:10;99856.22;;;6.39;91.27
68301;BME280;55146;47.468;18.806;2024-03-06T00:47:36;99862.63;;;6.28;91.90
68301;BME280;55146;47.468;18.806;2024-03-06T00:50:02;99853.97;;;6.14;92.68
68301;BME280;55146;47.468;18.806;2024-03-06T00:52:27;99868.66;;;5.91;94.78
68301;BME280;55146;47.468;18.806;2024-03-06T00:54:52;99862.84;;;6.04;94.92
68301;BME280;55146;47.468;18.806;2024-03-06T00:57:18;99861.56;;;6.12;94.21
68301;BME280;55146;47.468;18.806;2024-03-06T00:59:43;99863.56;;;6.17;93.76
68301;BME280;55146;47.468;18.806;2024-03-06T01:02:08;99869.34;;;6.20;93.28
68301;BME280;55146;47.468;18.806;2024-03-06T01:04:34;99870.47;;;6.24;93.08
68301;BME280;55146;47.468;18.806;2024-03-06T01:06:59;99868.84;;;6.23;92.85
68301;BME280;55146;47.468;18.806;2024-03-06T01:09:24;99864.19;;;6.24;92.88
68301;BME280;55146;47.468;18.806;2024-03-06T01:11:50;99868.56;;;6.25;92.88
68301;BME280;55146;47.468;18.806;2024-03-06T01:14:16;99864.47;;;6.22;92.76
68301;BME280;55146;47.468;18.806;2024-03-06T01:16:41;99872.13;;;6.25;92.75
68301;BME280;55146;47.468;18.806;2024-03-06T01:19:07;99875.44;;;6.27;92.58
68301;BME280;55146;47.468;18.806;2024-03-06T01:21:32;99870.87;;;6.33;92.70
68301;BME280;55146;47.468;18.806;2024-03-06T01:24:00;99870.87;;;6.33;93.20
68301;BME280;55146;47.468;18.806;2024-03-06T01:26:25;99878.00;;;6.34;93.28
68301;BME280;55146;47.468;18.806;2024-03-06T01:28:51;99873.91;;;6.36;93.60
68301;BME280;55146;47.468;18.806;2024-03-06T01:31:17;99868.47;;;6.36;93.55
68301;BME280;55146;47.468;18.806;2024-03-06T01:33:42;99871.87;;;6.27;93.68
68301;BME280;55146;47.468;18.806;2024-03-06T01:36:07;99871.00;;;6.21;94.29
68301;BME280;55146;47.468;18.806;2024-03-06T01:38:33;99877.84;;;6.24;94.41
68301;BME280;55146;47.468;18.806;2024-03-06T01:40:58;99876.28;;;6.28;94.14
68301;BME280;55146;47.468;18.806;2024-03-06T01:43:25;99871.66;;;6.28;93.50
68301;BME280;55146;47.468;18.806;2024-03-06T01:45:51;99874.09;;;6.30;92.94
68301;BME280;55146;47.468;18.806;2024-03-06T01:48:28;99870.47;;;6.24;92.64
68301;BME280;55146;47.468;18.806;2024-03-06T01:50:55;99872.91;;;6.21;93.00
68301;BME280;55146;47.468;18.806;2024-03-06T01:53:22;99872.59;;;6.17;92.87
68301;BME280;55146;47.468;18.806;2024-03-06T01:55:49;99877.22;;;6.17;93.12
68301;BME280;55146;47.468;18.806;2024-03-06T01:58:15;99878.13;;;6.05;93.10
68301;BME280;55146;47.468;18.806;2024-03-06T02:00:41;99873.84;;;5.93;93.80
68301;BME280;55146;47.468;18.806;2024-03-06T02:03:06;99880.78;;;5.84;94.97
68301;BME280;55146;47.468;18.806;2024-03-06T02:05:32;99878.22;;;5.94;95.64
68301;BME280;55146;47.468;18.806;2024-03-06T02:07:58;99884.31;;;5.84;95.95
68301;BME280;55146;47.468;18.806;2024-03-06T02:10:27;99876.84;;;5.91;96.31
68301;BME280;55146;47.468;18.806;2024-03-06T02:12:54;99885.94;;;5.97;96.25
68301;BME280;55146;47.468;18.806;2024-03-06T02:15:19;99882.19;;;6.03;95.72
68301;BME280;55146;47.468;18.806;2024-03-06T02:17:45;99887.66;;;6.03;94.93
68301;BME280;55146;47.468;18.806;2024-03-06T02:20:11;99881.38;;;6.02;94.65
68301;BME280;55146;47.468;18.806;2024-03-06T02:22:40;99889.97;;;5.94;94.46
68301;BME280;55146;47.468;18.806;2024-03-06T02:25:06;99882.97;;;5.98;94.68
68301;BME280;55146;47.468;18.806;2024-03-06T02:27:31;99878.22;;;5.94;94.59
68301;BME280;55146;47.468;18.806;2024-03-06T02:29:57;99882.28;;;5.91;94.54
68301;BME280;55146;47.468;18.806;2024-03-06T02:32:23;99887.47;;;5.59;95.39
68301;BME280;55146;47.468;18.806;2024-03-06T02:34:49;99884.91;;;5.69;96.26
68301;BME280;55146;47.468;18.806;2024-03-06T02:37:15;99879.28;;;5.76;96.32
68301;BME280;55146;47.468;18.806;2024-03-06T02:39:40;99884.72;;;5.76;96.08
68301;BME280;55146;47.468;18.806;2024-03-06T02:42:06;99882.34;;;5.80;95.78
68301;BME280;55146;47.468;18.806;2024-03-06T02:44:32;99878.97;;;5.73;95.14
68301;BME280;55146;47.468;18.806;2024-03-06T02:46:57;99893.59;;;5.66;94.56
68301;BME280;55146;47.468;18.806;2024-03-06T02:49:23;99894.41;;;5.67;94.68
68301;BME280;55146;47.468;18.806;2024-03-06T02:51:48;99892.91;;;5.59;94.59
68301;BME280;55146;47.468;18.806;2024-03-06T02:54:13;99884.31;;;5.51;94.94
68301;BME280;55146;47.468;18.806;2024-03-06T02:56:39;99896.19;;;5.45;94.85
68301;BME280;55146;47.468;18.806;2024-03-06T02:59:04;99896.72;;;5.42;94.44
68301;BME280;55146;47.468;18.806;2024-03-06T03:01:30;99901.34;;;5.41;93.73
68301;BME280;55146;47.468;18.806;2024-03-06T03:03:56;99900.50;;;5.41;93.38
68301;BME280;55146;47.468;18.806;2024-03-06T03:06:21;99903.84;;;5.31;93.53
68301;BME280;55146;47.468;18.806;2024-03-06T03:08:49;99896.66;;;5.25;93.91
68301;BME280;55146;47.468;18.806;2024-03-06T03:11:14;99898.81;;;5.23;93.77
68301;BME280;55146;47.468;18.806;2024-03-06T03:13:41;99907.81;;;5.23;93.39
68301;BME280;55146;47.468;18.806;2024-03-06T03:16:06;99914.34;;;5.22;92.66
68301;BME280;55146;47.468;18.806;2024-03-06T03:18:32;99903.59;;;5.16;93.07
68301;BME280;55146;47.468;18.806;2024-03-06T03:20:57;99907.16;;;5.16;93.33
68301;BME280;55146;47.468;18.806;2024-03-06T03:23:23;99914.88;;;5.08;93.16
68301;BME280;55146;47.468;18.806;2024-03-06T03:25:48;99915.59;;;5.03;93.02
68301;BME280;55146;47.468;18.806;2024-03-06T03:28:16;99909.56;;;5.01;93.02
68301;BME280;55146;47.468;18.806;2024-03-06T03:30:44;99917.41;;;4.98;93.56
68301;BME280;55146;47.468;18.806;2024-03-06T03:33:10;99919.53;;;4.96;93.88
68301;BME280;55146;47.468;18.806;2024-03-06T03:35:36;99916.72;;;4.91;93.71
68301;BME280;55146;47.468;18.806;2024-03-06T03:38:01;99923.22;;;4.89;93.74
68301;BME280;55146;47.468;18.806;2024-03-06T03:40:26;99921.56;;;4.88;94.07
68301;BME280;55146;47.468;18.806;2024-03-06T03:42:52;99925.84;;;4.84;94.01
68301;BME280;55146;47.468;18.806;2024-03-06T03:45:17;99926.22;;;4.76;94.27
68301;BME280;55146;47.468;18.806;2024-03-06T03:47:43;99924.44;;;4.82;94.13
68301;BME280;55146;47.468;18.806;2024-03-06T03:50:09;99929.19;;;4.86;93.28
68301;BME280;55146;47.468;18.806;2024-03-06T03:52:34;99924.78;;;4.85;92.71
68301;BME280;55146;47.468;18.806;2024-03-06T03:55:00;99928.34;;;4.86;93.26
68301;BME280;55146;47.468;18.806;2024-03-06T03:57:25;99927.88;;;4.77;93.52
68301;BME280;55146;47.468;18.806;2024-03-06T03:59:50;99931.94;;;4.75;93.78
68301;BME280;55146;47.468;18.806;2024-03-06T04:02:17;99927.06;;;4.77;93.66
68301;BME280;55146;47.468;18.806;2024-03-06T04:04:42;99932.50;;;4.77;93.17
68301;BME280;55146;47.468;18.806;2024-03-06T04:07:08;99931.81;;;4.70;93.18
68301;BME280;55146;47.468;18.806;2024-03-06T04:09:33;99936.56;;;4.74;93.29
68301;BME280;55146;47.468;18.806;2024-03-06T04:12:02;99939.03;;;4.64;93.42
68301;BME280;55146;47.468;18.806;2024-03-06T04:14:28;99938.09;;;4.59;93.36
68301;BME280;55146;47.468;18.806;2024-03-06T04:16:53;99934.56;;;4.58;92.95
68301;BME280;55146;47.468;18.806;2024-03-06T04:19:18;99933.63;;;4.53;92.97
68301;BME280;55146;47.468;18.806;2024-03-06T04:21:44;99938.97;;;4.47;93.43
68301;BME280;55146;47.468;18.806;2024-03-06T04:24:09;99943.91;;;4.51;93.37
68301;BME280;55146;47.468;18.806;2024-03-06T04:26:35;99931.94;;;4.52;92.64
68301;BME280;55146;47.468;18.806;2024-03-06T04:29:01;99937.66;;;4.50;92.40
68301;BME280;55146;47.468;18.806;2024-03-06T04:31:27;99940.50;;;4.55;92.93
68301;BME280;55146;47.468;18.806;2024-03-06T04:33:53;99948.28;;;4.52;93.17
68301;BME280;55146;47.468;18.806;2024-03-06T04:36:18;99951.97;;;4.45;93.14
68301;BME280;55146;47.468;18.806;2024-03-06T04:38:43;99953.63;;;4.46;93.38
68301;BME280;55146;47.468;18.806;2024-03-06T04:41:09;99956.72;;;4.50;93.78
68301;BME280;55146;47.468;18.806;2024-03-06T04:43:35;99955.06;;;4.49;93.63
68301;BME280;55146;47.468;18.806;2024-03-06T04:46:01;99957.53;;;4.51;93.00
68301;BME280;55146;47.468;18.806;2024-03-06T04:48:26;99952.81;;;4.46;92.42
68301;BME280;55146;47.468;18.806;2024-03-06T04:50:52;99953.19;;;4.38;92.59
68301;BME280;55146;47.468;18.806;2024-03-06T04:53:18;99956.03;;;4.31;93.19
68301;BME280;55146;47.468;18.806;2024-03-06T04:55:45;99956.59;;;4.33;93.46
68301;BME280;55146;47.468;18.806;2024-03-06T04:58:10;99965.81;;;4.32;93.89
68301;BME280;55146;47.468;18.806;2024-03-06T05:00:36;99972.81;;;4.28;93.67
68301;BME280;55146;47.468;18.806;2024-03-06T05:03:01;99966.88;;;4.20;93.62
68301;BME280;55146;47.468;18.806;2024-03-06T05:05:26;99968.31;;;4.22;94.15
68301;BME280;55146;47.468;18.806;2024-03-06T05:07:52;99975.06;;;4.20;94.27
68301;BME280;55146;47.468;18.806;2024-03-06T05:10:17;99968.22;;;4.17;94.57
68301;BME280;55146;47.468;18.806;2024-03-06T05:12:43;99974.81;;;4.21;94.83
68301;BME280;55146;47.468;18.806;2024-03-06T05:15:09;99971.41;;;4.26;94.48
68301;BME280;55146;47.468;18.806;2024-03-06T05:17:35;99973.19;;;4.32;94.23
68301;BME280;55146;47.468;18.806;2024-03-06T05:20:01;99973.66;;;4.29;94.42
68301;BME280;55146;47.468;18.806;2024-03-06T05:22:26;99962.87;;;4.34;94.92
68301;BME280;55146;47.468;18.806;2024-03-06T05:24:52;99969.97;;;4.35;95.33
68301;BME280;55146;47.468;18.806;2024-03-06T05:27:18;99972.09;;;4.33;95.46
68301;BME280;55146;47.468;18.806;2024-03-06T05:29:44;99966.19;;;4.36;95.53
68301;BME280;55146;47.468;18.806;2024-03-06T05:32:09;99965.81;;;4.32;95.87
68301;BME280;55146;47.468;18.806;2024-03-06T05:34:35;99978.03;;;4.41;95.86
68301;BME280;55146;47.468;18.806;2024-03-06T05:37:01;99971.75;;;4.41;95.99
68301;BME280;55146;47.468;18.806;2024-03-06T05:39:28;99966.66;;;4.44;95.97
68301;BME280;55146;47.468;18.806;2024-03-06T05:41:54;99968.91;;;4.47;96.22
68301;BME280;55146;47.468;18.806;2024-03-06T05:44:20;99967.25;;;4.46;96.47
68301;BME280;55146;47.468;18.806;2024-03-06T05:46:46;99966.91;;;4.43;96.63
68301;BME280;55146;47.468;18.806;2024-03-06T05:49:12;99970.09;;;4.40;96.63
68301;BME280;55146;47.468;18.806;2024-03-06T05:51:38;99980.16;;;4.39;97.04
68301;BME280;55146;47.468;18.806;2024-03-06T05:54:03;99977.31;;;4.46;97.09
68301;BME280;55146;47.468;18.806;2024-03-06T05:56:30;99983.13;;;4.50;97.07
68301;BME280;55146;47.468;18.806;2024-03-06T05:58:56;99979.91;;;4.53;96.95
68301;BME280;55146;47.468;18.806;2024-03-06T06:01:21;99983.69;;;4.52;96.60
68301;BME280;55146;47.468;18.806;2024-03-06T06:03:47;99984.19;;;4.48;96.34
68301;BME280;55146;47.468;18.806;2024-03-06T06:06:17;99988.06;;;4.64;96.08
68301;BME280;55146;47.468;18.806;2024-03-06T06:08:42;99991.88;;;4.63;95.83
68301;BME280;55146;47.468;18.806;2024-03-06T06:11:09;99998.16;;;4.64;95.57
68301;BME280;55146;47.468;18.806;2024-03-06T06:13:35;99996.50;;;4.63;95.24
68301;BME280;55146;47.468;18.806;2024-03-06T06:16:00;99998.16;;;4.64;95.29
68301;BME280;55146;47.468;18.806;2024-03-06T06:18:28;100000.75;;;4.70;95.19
68301;BME280;55146;47.468;18.806;2024-03-06T06:20:54;99995.66;;;4.74;95.29
68301;BME280;55146;47.468;18.806;2024-03-06T06:23:19;99998.12;;;4.75;95.37
68301;BME280;55146;47.468;18.806;2024-03-06T06:25:44;100002.28;;;4.78;96.08
68301;BME280;55146;47.468;18.806;2024-03-06T06:28:11;100005.34;;;4.81;96.33
68301;BME280;55146;47.468;18.806;2024-03-06T06:30:36;100009.38;;;4.91;96.79
68301;BME280;55146;47.468;18.806;2024-03-06T06:33:01;100014.22;;;4.88;96.33
68301;BME280;55146;47.468;18.806;2024-03-06T06:35:27;100017.44;;;4.97;96.36
68301;BME280;55146;47.468;18.806;2024-03-06T06:37:52;100007.78;;;5.06;95.91
68301;BME280;55146;47.468;18.806;2024-03-06T06:40:18;100011.34;;;5.07;95.14
68301;BME280;55146;47.468;18.806;2024-03-06T06:42:45;100011.25;;;5.02;94.82
68301;BME280;55146;47.468;18.806;2024-03-06T06:45:20;100007.59;;;4.96;94.83
68301;BME280;55146;47.468;18.806;2024-03-06T06:47:48;100013.94;;;5.13;95.49
68301;BME280;55146;47.468;18.806;2024-03-06T06:50:14;100012.84;;;5.26;95.28
68301;BME280;55146;47.468;18.806;2024-03-06T06:52:40;100016.97;;;5.40;95.17
68301;BME280;55146;47.468;18.806;2024-03-06T06:55:06;100015.75;;;5.48;94.84
68301;BME280;55146;47.468;18.806;2024-03-06T06:57:31;100011.22;;;5.53;95.00
68301;BME280;55146;47.468;18.806;2024-03-06T06:59:58;100020.22;;;5.54;94.88
68301;BME280;55146;47.468;18.806;2024-03-06T07:02:24;100025.78;;;5.59;95.15
68301;BME280;55146;47.468;18.806;2024-03-06T07:04:50;100021.97;;;5.60;94.86
68301;BME280;55146;47.468;18.806;2024-03-06T07:07:15;100023.97;;;5.64;95.30
68301;BME280;55146;47.468;18.806;2024-03-06T07:09:43;100022.16;;;5.70;95.27
68301;BME280;55146;47.468;18.806;2024-03-06T07:12:08;100020.59;;;5.74;95.68
68301;BME280;55146;47.468;18.806;2024-03-06T07:14:34;100034.34;;;5.79;96.45
68301;BME280;55146;47.468;18.806;2024-03-06T07:16:59;100030.81;;;5.79;96.08
68301;BME280;55146;47.468;18.806;2024-03-06T07:19:24;100032.78;;;5.83;96.26
68301;BME280;55146;47.468;18.806;2024-03-06T07:21:50;100028.28;;;5.89;96.72
68301;BME280;55146;47.468;18.806;2024-03-06T07:24:15;100023.41;;;5.91;97.05
68301;BME280;55146;47.468;18.806;2024-03-06T07:26:41;100034.09;;;5.92;97.03
68301;BME280;55146;47.468;18.806;2024-03-06T07:29:06;100026.47;;;5.94;98.28
68301;BME280;55146;47.468;18.806;2024-03-06T07:31:40;100023.41;;;6.07;98.60
68301;BME280;55146;47.468;18.806;2024-03-06T07:34:07;100030.37;;;6.15;98.48
68301;BME280;55146;47.468;18.806;2024-03-06T07:36:34;100031.31;;;6.21;98.55
68301;BME280;55146;47.468;18.806;2024-03-06T07:39:00;100030.31;;;6.27;97.99
68301;BME280;55146;47.468;18.806;2024-03-06T07:41:25;100031.53;;;6.36;98.52
68301;BME280;55146;47.468;18.806;2024-03-06T07:43:51;100031.38;;;6.42;97.89
68301;BME280;55146;47.468;18.806;2024-03-06T07:46:16;100027.47;;;6.55;98.54
68301;BME280;55146;47.468;18.806;2024-03-06T07:48:42;100034.78;;;6.66;99.16
68301;BME280;55146;47.468;18.806;2024-03-06T07:51:09;100035.75;;;6.77;99.83
68301;BME280;55146;47.468;18.806;2024-03-06T07:53:34;100042.41;;;6.86;99.29
68301;BME280;55146;47.468;18.806;2024-03-06T07:56:00;100037.22;;;6.84;98.96
68301;BME280;55146;47.468;18.806;2024-03-06T07:58:25;100045.03;;;6.98;99.22
68301;BME280;55146;47.468;18.806;2024-03-06T08:00:52;100041.81;;;7.01;99.61
68301;BME280;55146;47.468;18.806;2024-03-06T08:03:20;100050.69;;;7.08;99.85
68301;BME280;55146;47.468;18.806;2024-03-06T08:05:50;100047.19;;;7.12;100.00
68301;BME280;55146;47.468;18.806;2024-03-06T08:08:16;100040.37;;;7.15;99.80
68301;BME280;55146;47.468;18.806;2024-03-06T08:10:41;100032.00;;;7.21;100.00
68301;BME280;55146;47.468;18.806;2024-03-06T08:13:06;100047.06;;;7.24;99.85
68301;BME280;55146;47.468;18.806;2024-03-06T08:15:32;100047.41;;;7.27;99.79
68301;BME280;55146;47.468;18.806;2024-03-06T08:17:57;100045.34;;;7.40;100.00
68301;BME280;55146;47.468;18.806;2024-03-06T08:20:22;100044.44;;;7.56;100.00
68301;BME280;55146;47.468;18.806;2024-03-06T08:22:48;100035.12;;;7.79;100.00
68301;BME280;55146;47.468;18.806;2024-03-06T08:25:14;100040.03;;;8.03;99.96
68301;BME280;55146;47.468;18.806;2024-03-06T08:27:40;100039.12;;;8.25;96.86
68301;BME280;55146;47.468;18.806;2024-03-06T08:30:08;100039.56;;;8.38;97.02
68301;BME280;55146;47.468;18.806;2024-03-06T08:32:34;100044.69;;;8.62;95.85
68301;BME280;55146;47.468;18.806;2024-03-06T08:37:31;100042.88;;;8.77;93.82
68301;BME280;55146;47.468;18.806;2024-03-06T08:40:01;100041.56;;;8.90;94.34
68301;BME280;55146;47.468;18.806;2024-03-06T08:42:27;100040.87;;;9.10;93.98
68301;BME280;55146;47.468;18.806;2024-03-06T08:44:53;100046.47;;;9.30;92.82
68301;BME280;55146;47.468;18.806;2024-03-06T08:47:18;100041.84;;;9.41;92.26
68301;BME280;55146;47.468;18.806;2024-03-06T08:49:44;100048.44;;;9.45;91.66
68301;BME280;55146;47.468;18.806;2024-03-06T08:52:10;100047.13;;;9.57;92.07
68301;BME280;55146;47.468;18.806;2024-03-06T08:54:36;100041.44;;;9.74;90.55
68301;BME280;55146;47.468;18.806;2024-03-06T08:57:02;100051.09;;;9.87;90.09
68301;BME280;55146;47.468;18.806;2024-03-06T08:59:28;100044.78;;;9.96;88.63
68301;BME280;55146;47.468;18.806;2024-03-06T09:01:54;100045.34;;;10.03;88.61
68301;BME280;55146;47.468;18.806;2024-03-06T09:04:20;100050.09;;;10.23;88.62
68301;BME280;55146;47.468;18.806;2024-03-06T09:06:46;100041.56;;;10.40;87.49
68301;BME280;55146;47.468;18.806;2024-03-06T09:09:11;100048.72;;;10.51;87.48
68301;BME280;55146;47.468;18.806;2024-03-06T09:11:40;100049.81;;;10.65;86.12
68301;BME280;55146;47.468;18.806;2024-03-06T09:14:07;100055.03;;;10.92;85.68
68301;BME280;55146;47.468;18.806;2024-03-06T09:16:32;100047.00;;;11.06;84.94
68301;BME280;55146;47.468;18.806;2024-03-06T09:18:57;100046.72;;;11.07;84.32
68301;BME280;55146;47.468;18.806;2024-03-06T09:21:23;100050.56;;;11.11;84.60
68301;BME280;55146;47.468;18.806;2024-03-06T09:23:48;100048.91;;;11.20;83.64
68301;BME280;55146;47.468;18.806;2024-03-06T09:26:16;100053.03;;;11.23;83.12
68301;BME280;55146;47.468;18.806;2024-03-06T09:28:42;100046.63;;;11.38;83.40
68301;BME280;55146;47.468;18.806;2024-03-06T09:31:07;100042.97;;;11.62;82.64
68301;BME280;55146;47.468;18.806;2024-03-06T09:33:33;100043.72;;;11.83;81.35
68301;BME280;55146;47.468;18.806;2024-03-06T09:35:59;100041.84;;;12.18;80.73
68301;BME280;55146;47.468;18.806;2024-03-06T09:38:24;100041.16;;;12.36;79.84
68301;BME280;55146;47.468;18.806;2024-03-06T09:40:50;100043.97;;;12.65;78.14
68301;BME280;55146;47.468;18.806;2024-03-06T09:43:16;100047.06;;;12.87;78.02
68301;BME280;55146;47.468;18.806;2024-03-06T09:45:45;100042.94;;;12.84;75.29
68301;BME280;55146;47.468;18.806;2024-03-06T09:48:13;100036.97;;;12.72;75.98
68301;BME280;55146;47.468;18.806;2024-03-06T09:50:43;100026.87;;;12.63;76.53
68301;BME280;55146;47.468;18.806;2024-03-06T09:53:12;100030.94;;;12.70;77.47
68301;BME280;55146;47.468;18.806;2024-03-06T09:55:40;100032.44;;;13.15;77.08
68301;BME280;55146;47.468;18.806;2024-03-06T09:58:06;100024.63;;;13.46;75.15
68301;BME280;55146;47.468;18.806;2024-03-06T10:00:33;100027.97;;;13.67;74.52
68301;BME280;55146;47.468;18.806;2024-03-06T10:03:02;100025.88;;;13.77;71.89
68301;BME280;55146;47.468;18.806;2024-03-06T10:05:30;100015.94;;;13.76;71.00
68301;BME280;55146;47.468;18.806;2024-03-06T10:07:57;100011.53;;;13.75;72.70
68301;BME280;55146;47.468;18.806;2024-03-06T10:10:24;100009.00;;;13.79;70.72
68301;BME280;55146;47.468;18.806;2024-03-06T10:12:50;100015.34;;;13.98;70.75
68301;BME280;55146;47.468;18.806;2024-03-06T10:15:15;100011.44;;;14.37;69.81
68301;BME280;55146;47.468;18.806;2024-03-06T10:17:41;100013.75;;;14.67;67.60
68301;BME280;55146;47.468;18.806;2024-03-06T10:20:22;100009.78;;;15.01;67.44
68301;BME280;55146;47.468;18.806;2024-03-06T10:22:52;100010.94;;;15.27;66.01
68301;BME280;55146;47.468;18.806;2024-03-06T10:25:19;100005.50;;;15.49;64.64
68301;BME280;55146;47.468;18.806;2024-03-06T10:27:45;100001.31;;;15.65;63.72
68301;BME280;55146;47.468;18.806;2024-03-06T10:30:11;100002.59;;;15.95;65.45
68301;BME280;55146;47.468;18.806;2024-03-06T10:32:39;99997.78;;;16.23;62.41
68301;BME280;55146;47.468;18.806;2024-03-06T10:35:05;99999.56;;;16.41;60.28
68301;BME280;55146;47.468;18.806;2024-03-06T10:37:32;99999.28;;;16.51;59.61
68301;BME280;55146;47.468;18.806;2024-03-06T10:40:02;99993.50;;;16.62;58.52
68301;BME280;55146;47.468;18.806;2024-03-06T10:42:32;99989.31;;;16.73;59.15
68301;BME280;55146;47.468;18.806;2024-03-06T10:44:59;99987.81;;;16.97;58.76
68301;BME280;55146;47.468;18.806;2024-03-06T10:47:28;99984.16;;;17.19;57.00
68301;BME280;55146;47.468;18.806;2024-03-06T10:49:54;99982.12;;;17.42;55.14
68301;BME280;55146;47.468;18.806;2024-03-06T10:52:21;99988.50;;;17.43;53.30
68301;BME280;55146;47.468;18.806;2024-03-06T10:54:48;99977.84;;;17.36;52.87
68301;BME280;55146;47.468;18.806;2024-03-06T10:57:14;99982.88;;;17.25;52.30
68301;BME280;55146;47.468;18.806;2024-03-06T10:59:39;99975.63;;;17.16;53.29
68301;BME280;55146;47.468;18.806;2024-03-06T11:02:08;99973.25;;;17.31;56.48
68301;BME280;55146;47.468;18.806;2024-03-06T11:04:35;99968.72;;;17.44;52.40
68301;BME280;55146;47.468;18.806;2024-03-06T11:07:04;99963.50;;;17.60;52.76
68301;BME280;55146;47.468;18.806;2024-03-06T11:09:36;99964.72;;;17.76;53.69
68301;BME280;55146;47.468;18.806;2024-03-06T11:12:05;99961.47;;;17.83;51.17
68301;BME280;55146;47.468;18.806;2024-03-06T11:14:38;99959.81;;;17.82;51.55
68301;BME280;55146;47.468;18.806;2024-03-06T11:17:06;99959.81;;;17.90;51.73
68301;BME280;55146;47.468;18.806;2024-03-06T11:28:19;99942.13;;;17.69;50.97
68301;BME280;55146;47.468;18.806;2024-03-06T11:30:48;99934.41;;;17.66;51.05
68301;BME280;55146;47.468;18.806;2024-03-06T11:33:19;99933.78;;;17.69;51.29
68301;BME280;55146;47.468;18.806;2024-03-06T11:36:20;99931.81;;;17.69;50.70
68301;BME280;55146;47.468;18.806;2024-03-06T11:38:56;99931.16;;;17.64;49.78
68301;BME280;55146;47.468;18.806;2024-03-06T11:41:24;99927.06;;;17.61;50.21
68301;BME280;55146;47.468;18.806;2024-03-06T11:43:51;99917.31;;;17.42;51.13
68301;BME280;55146;47.468;18.806;2024-03-06T11:47:04;99923.56;;;16.90;51.56
68301;BME280;55146;47.468;18.806;2024-03-06T11:49:04;99915.78;;;16.70;51.63
68301;BME280;55146;47.468;18.806;2024-03-06T11:51:30;99916.75;;;16.66;52.97
68301;BME280;55146;47.468;18.806;2024-03-06T11:53:56;99916.69;;;16.88;53.84
68301;BME280;55146;47.468;18.806;2024-03-06T11:56:21;99909.72;;;17.08;52.42
68301;BME280;55146;47.468;18.806;2024-03-06T11:58:47;99908.59;;;17.09;52.53
68301;BME280;55146;47.468;18.806;2024-03-06T12:01:13;99914.94;;;17.01;52.06
68301;BME280;55146;47.468;18.806;2024-03-06T12:03:40;99915.25;;;16.99;52.02
68301;BME280;55146;47.468;18.806;2024-03-06T12:06:06;99916.94;;;17.09;54.65
68301;BME280;55146;47.468;18.806;2024-03-06T12:08:33;99911.38;;;17.17;53.12
68301;BME280;55146;47.468;18.806;2024-03-06T12:11:02;99907.31;;;17.23;53.01
68301;BME280;55146;47.468;18.806;2024-03-06T12:13:29;99907.31;;;17.23;52.40
68301;BME280;55146;47.468;18.806;2024-03-06T12:15:54;99906.28;;;17.11;52.25
68301;BME280;55146;47.468;18.806;2024-03-06T12:18:20;99909.00;;;16.85;52.76
68301;BME280;55146;47.468;18.806;2024-03-06T12:20:45;99902.41;;;16.72;55.05
68301;BME280;55146;47.468;18.806;2024-03-06T12:23:21;99908.81;;;16.81;54.67
68301;BME280;55146;47.468;18.806;2024-03-06T12:26:02;99901.37;;;16.68;54.55
68301;BME280;55146;47.468;18.806;2024-03-06T12:28:28;99899.19;;;16.56;53.90
68301;BME280;55146;47.468;18.806;2024-03-06T12:30:53;99895.97;;;16.63;56.40
68301;BME280;55146;47.468;18.806;2024-03-06T12:33:18;99892.44;;;16.80;55.11
68301;BME280;55146;47.468;18.806;2024-03-06T12:35:45;99886.50;;;17.12;53.11
68301;BME280;55146;47.468;18.806;2024-03-06T12:38:15;99890.12;;;17.13;53.71
68301;BME280;55146;47.468;18.806;2024-03-06T12:40:43;99890.06;;;17.04;53.77
68301;BME280;55146;47.468;18.806;2024-03-06T12:43:09;99880.81;;;16.69;53.78
68301;BME280;55146;47.468;18.806;2024-03-06T12:45:35;99879.41;;;16.58;55.28
68301;BME280;55146;47.468;18.806;2024-03-06T12:48:02;99886.78;;;16.85;53.42
68301;BME280;55146;47.468;18.806;2024-03-06T12:50:28;99882.56;;;17.05;54.65
68301;BME280;55146;47.468;18.806;2024-03-06T12:52:53;99876.72;;;17.23;53.46
68301;BME280;55146;47.468;18.806;2024-03-06T12:55:19;99874.16;;;17.44;53.34
68301;BME280;55146;47.468;18.806;2024-03-06T12:57:45;99868.56;;;17.35;50.95
68301;BME280;55146;47.468;18.806;2024-03-06T13:00:11;99876.44;;;17.42;51.45